Time;durP1;ratioP1;P1;durP2;ratioP2;P2;SDS_P1;SDS_P2;PMS_P1;PMS_P2;Temp;Humidity;BMP_temperature;BMP_pressure;BME280_temperature;BME280_humidity;BME280_pressure;Samples;Min_cycle;Max_cycle;Signal;HPM_P1;HPM_P2
2021/12/24 00:00:50;;;;;;;163.85;55.05;;;6.20;99.90;;;;;;4893364;29;20051;-94
2021/12/24 00:03:16;;;;;;;153.95;56.50;;;6.20;99.90;;;;;;4916139;29;20544;-92
2021/12/24 00:05:42;;;;;;;163.35;56.35;;;6.40;99.90;;;;;;4917903;29;20055;-93
2021/12/24 00:08:08;;;;;;;170.50;56.08;;;6.30;99.90;;;;;;4922773;29;20512;-93
2021/12/24 00:10:35;;;;;;;202.68;60.90;;;6.30;99.90;;;;;;4935668;29;20043;-94
2021/12/24 00:13:05;;;;;;;179.65;57.17;;;6.30;99.90;;;;;;4933224;29;20095;-95
2021/12/24 00:18:57;;;;;;;183.98;55.85;;;6.40;99.90;;;;;;4933370;29;20058;-95
2021/12/24 00:22:15;;;;;;;170.85;54.67;;;6.40;99.90;;;;;;4932399;29;20138;-94
2021/12/24 00:35:12;;;;;;;147.82;49.90;;;6.50;99.90;;;;;;4935985;29;20084;-93
2021/12/24 00:37:39;;;;;;;120.85;48.72;;;6.50;99.90;;;;;;4920013;29;20054;-94
2021/12/24 00:40:17;;;;;;;133.85;48.20;;;6.60;99.90;;;;;;4936169;29;20043;-93
2021/12/24 00:42:45;;;;;;;137.27;49.58;;;6.60;99.90;;;;;;4935990;29;20070;-94
2021/12/24 00:45:12;;;;;;;157.27;50.30;;;6.70;99.90;;;;;;4932806;29;20053;-90
2021/12/24 00:47:38;;;;;;;101.28;43.38;;;6.70;99.90;;;;;;4915704;29;20268;-94
2021/12/24 00:50:08;;;;;;;96.82;41.38;;;6.70;99.90;;;;;;4904300;29;20110;-94
2021/12/24 00:52:48;;;;;;;97.97;40.78;;;6.70;99.90;;;;;;4919186;29;20043;-94
2021/12/24 00:55:22;;;;;;;79.78;37.30;;;6.80;99.90;;;;;;4919991;29;20043;-94
2021/12/24 00:57:59;;;;;;;77.57;36.45;;;6.80;99.90;;;;;;4920033;29;20075;-93
2021/12/24 01:00:37;;;;;;;74.50;35.92;;;6.90;99.90;;;;;;4935105;29;20488;-92
2021/12/24 01:03:07;;;;;;;69.00;33.33;;;6.90;99.90;;;;;;4916971;29;20040;-95
2021/12/24 01:05:33;;;;;;;80.73;34.77;;;7.00;99.90;;;;;;4904390;29;20055;-93
2021/12/24 01:07:59;;;;;;;64.70;34.08;;;7.00;99.90;;;;;;4917100;29;20067;-93
2021/12/24 01:10:31;;;;;;;63.65;31.38;;;7.00;99.90;;;;;;4935216;29;20102;-94
2021/12/24 01:12:57;;;;;;;64.63;31.83;;;7.10;99.90;;;;;;4935976;29;20051;-93
2021/12/24 01:15:24;;;;;;;66.70;33.00;;;7.10;99.90;;;;;;4918864;29;20050;-94
2021/12/24 01:17:59;;;;;;;62.65;31.33;;;7.20;99.90;;;;;;4901459;29;20134;-95
2021/12/24 01:23:28;;;;;;;61.97;30.48;;;7.20;99.90;;;;;;4932734;29;20047;-94
2021/12/24 01:25:59;;;;;;;54.95;29.52;;;7.20;99.90;;;;;;4920311;29;20039;-95
2021/12/24 01:39:26;;;;;;;49.65;25.77;;;7.40;99.90;;;;;;4935361;29;20047;-95
2021/12/24 01:44:37;;;;;;;46.83;26.27;;;7.40;99.90;;;;;;4936581;29;20043;-94
2021/12/24 01:47:07;;;;;;;49.78;27.50;;;7.40;99.90;;;;;;4924922;29;20399;-93
2021/12/24 01:49:33;;;;;;;49.55;26.27;;;7.40;99.90;;;;;;4924326;29;20043;-94
2021/12/24 01:52:02;;;;;;;49.83;26.38;;;7.40;99.90;;;;;;4935292;29;20127;-92
2021/12/24 01:54:27;;;;;;;45.53;24.95;;;7.50;99.90;;;;;;4956941;29;20022;-95
2021/12/24 01:56:53;;;;;;;40.60;24.02;;;7.50;99.90;;;;;;4940233;29;20055;-94
2021/12/24 01:59:19;;;;;;;40.00;22.65;;;7.50;99.90;;;;;;4921539;29;20067;-94
2021/12/24 02:01:45;;;;;;;46.38;24.13;;;7.50;99.90;;;;;;4923363;29;20090;-92
2021/12/24 02:04:13;;;;;;;36.05;22.23;;;7.50;99.90;;;;;;4936744;29;20055;-95
2021/12/24 02:06:40;;;;;;;36.00;22.45;;;7.50;99.90;;;;;;4919497;29;20102;-94
2021/12/24 02:09:06;;;;;;;38.38;23.02;;;7.50;99.90;;;;;;4904039;29;20055;-95
2021/12/24 02:11:37;;;;;;;32.08;21.08;;;7.60;99.90;;;;;;4903440;29;20071;-94
2021/12/24 02:14:09;;;;;;;32.67;20.85;;;7.60;99.90;;;;;;4901596;29;20050;-95
2021/12/24 02:30:24;;;;;;;32.65;20.88;;;7.80;99.90;;;;;;4917895;29;20051;-94
2021/12/24 02:32:50;;;;;;;31.75;19.48;;;7.80;99.90;;;;;;4916779;29;20048;-93
2021/12/24 02:35:18;;;;;;;29.52;19.17;;;7.80;99.90;;;;;;4901282;29;20046;-94
2021/12/24 02:37:45;;;;;;;31.05;18.83;;;7.80;99.90;;;;;;4915685;29;20052;-95
2021/12/24 02:40:11;;;;;;;30.42;18.85;;;7.90;99.90;;;;;;4901003;29;20072;-94
2021/12/24 02:42:37;;;;;;;33.55;19.92;;;7.90;99.90;;;;;;4902979;29;20051;-94
2021/12/24 02:45:03;;;;;;;29.65;18.65;;;7.90;99.90;;;;;;4903677;29;20042;-96
2021/12/24 02:47:57;;;;;;;30.02;20.02;;;7.90;99.90;;;;;;4919012;29;20047;-93
2021/12/24 02:55:34;;;;;;;34.90;21.30;;;7.90;99.90;;;;;;4918516;29;20059;-94
2021/12/24 02:57:59;;;;;;;35.60;20.83;;;8.00;99.90;;;;;;4903069;29;20047;-93
2021/12/24 03:00:27;;;;;;;35.83;21.38;;;8.00;99.90;;;;;;4902358;29;20126;-94
2021/12/24 03:02:55;;;;;;;41.45;23.00;;;8.10;99.90;;;;;;4903560;29;20044;-94
2021/12/24 03:05:24;;;;;;;41.60;22.15;;;8.10;99.90;;;;;;4916371;29;20109;-94
2021/12/24 03:07:50;;;;;;;44.10;23.00;;;8.10;99.90;;;;;;4935276;29;20453;-95
2021/12/24 03:10:19;;;;;;;36.75;20.35;;;8.10;99.90;;;;;;4917238;29;20054;-94
2021/12/24 03:12:47;;;;;;;37.65;21.77;;;8.10;99.90;;;;;;4921172;29;20045;-94
2021/12/24 03:15:15;;;;;;;38.08;22.80;;;8.20;99.90;;;;;;4918661;29;20065;-94
2021/12/24 03:17:47;;;;;;;40.15;23.23;;;8.20;99.90;;;;;;4954108;28;20062;-95
2021/12/24 03:20:13;;;;;;;40.30;22.10;;;8.20;99.90;;;;;;4938135;29;20047;-93
2021/12/24 03:23:01;;;;;;;43.65;23.00;;;8.30;99.90;;;;;;4934849;29;20106;-95
2021/12/24 03:25:26;;;;;;;39.35;22.00;;;8.30;99.90;;;;;;4937632;29;20055;-95
2021/12/24 03:27:52;;;;;;;42.15;22.27;;;8.40;99.90;;;;;;4925536;29;20050;-95
2021/12/24 03:30:17;;;;;;;39.25;21.00;;;8.40;99.90;;;;;;4941124;29;20050;-95
2021/12/24 03:32:43;;;;;;;36.55;20.42;;;8.50;99.90;;;;;;4928470;29;20035;-92
2021/12/24 03:35:09;;;;;;;33.50;19.08;;;8.60;99.90;;;;;;4929113;29;20043;-96
2021/12/24 03:37:34;;;;;;;32.65;19.10;;;8.60;99.90;;;;;;4926504;29;20154;-96
2021/12/24 03:40:00;;;;;;;34.22;18.48;;;8.70;99.90;;;;;;4940456;29;20043;-95
2021/12/24 03:42:26;;;;;;;27.92;16.85;;;8.70;99.90;;;;;;4924966;29;20058;-94
2021/12/24 03:45:05;;;;;;;29.02;16.85;;;8.70;99.90;;;;;;4926983;29;20043;-93
2021/12/24 03:47:36;;;;;;;25.85;16.05;;;8.70;99.90;;;;;;4925566;29;20138;-96
2021/12/24 03:50:08;;;;;;;;;;;8.80;99.90;;;;;;4924477;29;20040;-94
2021/12/24 03:55:18;;;;;;;24.05;15.48;;;8.80;99.90;;;;;;4938198;29;20058;-94
2021/12/24 03:57:44;;;;;;;25.73;15.25;;;8.80;99.90;;;;;;4922105;29;20078;-93
2021/12/24 04:00:11;;;;;;;27.10;16.27;;;8.90;99.90;;;;;;4923645;29;20043;-94
2021/12/24 04:02:37;;;;;;;25.35;16.33;;;8.90;99.90;;;;;;4922426;29;20130;-94
2021/12/24 04:05:03;;;;;;;24.83;16.65;;;9.00;99.90;;;;;;4938021;29;20074;-96
2021/12/24 04:07:29;;;;;;;29.40;18.45;;;9.00;99.90;;;;;;4937392;29;20048;-96
2021/12/24 04:10:10;;;;;;;33.95;20.45;;;9.10;99.90;;;;;;4937803;29;20547;-95
2021/12/24 04:12:37;;;;;;;39.50;22.88;;;9.00;99.90;;;;;;4921640;29;20103;-95
2021/12/24 04:15:03;;;;;;;35.53;22.02;;;9.10;99.90;;;;;;4922469;29;20046;-95
2021/12/24 04:17:34;;;;;;;37.08;22.52;;;9.10;99.90;;;;;;4919829;29;20429;-94
2021/12/24 04:25:30;;;;;;;39.45;23.23;;;9.10;99.90;;;;;;4932700;29;20062;-95
2021/12/24 04:27:58;;;;;;;42.92;23.92;;;9.10;99.90;;;;;;4944120;29;20126;-96
2021/12/24 04:30:31;;;;;;;41.70;24.90;;;9.10;99.90;;;;;;4941839;29;20054;-96
2021/12/24 04:33:02;;;;;;;41.20;25.33;;;9.20;99.90;;;;;;4939869;29;20043;-96
2021/12/24 04:51:25;;;;;;;39.70;25.20;;;9.20;99.90;;;;;;4940214;29;20050;-95
2021/12/24 05:05:11;;;;;;;53.92;28.15;;;9.20;99.90;;;;;;4935068;29;20538;-94
2021/12/24 05:10:03;;;;;;;50.92;28.08;;;9.10;99.90;;;;;;4938142;29;20090;-92
2021/12/24 05:12:31;;;;;;;47.20;26.65;;;9.20;99.90;;;;;;4920532;29;20050;-96
2021/12/24 05:14:59;;;;;;;45.72;27.40;;;9.10;99.90;;;;;;4922768;29;20042;-94
2021/12/24 05:17:33;;;;;;;44.28;25.77;;;9.10;99.90;;;;;;4922624;29;20134;-93
2021/12/24 05:22:42;;;;;;;40.33;24.30;;;9.10;99.90;;;;;;4933438;29;20048;-94
2021/12/24 05:25:08;;;;;;;39.72;24.70;;;9.10;99.90;;;;;;4918682;29;20413;-93
2021/12/24 05:27:35;;;;;;;42.80;26.00;;;9.10;99.90;;;;;;4920078;29;20481;-94
2021/12/24 05:30:02;;;;;;;40.65;26.15;;;9.10;99.90;;;;;;4933682;29;20055;-95
2021/12/24 05:32:27;;;;;;;45.25;25.50;;;9.10;99.90;;;;;;4902909;29;20055;-94
2021/12/24 05:34:53;;;;;;;42.70;27.10;;;9.10;99.90;;;;;;4922186;29;20046;-95
2021/12/24 05:37:18;;;;;;;41.33;26.75;;;9.10;99.90;;;;;;4940699;29;20043;-96
2021/12/24 05:39:44;;;;;;;47.63;27.25;;;9.20;99.90;;;;;;4931150;29;20065;-95
2021/12/24 05:42:15;;;;;;;45.72;27.80;;;9.10;99.90;;;;;;4921193;29;20062;-95
2021/12/24 05:44:41;;;;;;;50.80;28.23;;;9.10;99.90;;;;;;4941510;29;20053;-96
2021/12/24 05:47:07;;;;;;;45.45;28.70;;;9.10;99.90;;;;;;4941763;29;20047;-93
2021/12/24 05:49:34;;;;;;;48.42;28.67;;;9.10;99.90;;;;;;4924487;29;20039;-95
2021/12/24 05:52:00;;;;;;;43.10;27.08;;;9.10;99.90;;;;;;4926582;29;20047;-95
2021/12/24 05:54:26;;;;;;;49.13;26.27;;;9.10;99.90;;;;;;4926699;29;20380;-95
2021/12/24 05:56:52;;;;;;;45.55;26.05;;;9.20;99.90;;;;;;4929830;29;20078;-96
2021/12/24 05:59:18;;;;;;;47.30;26.58;;;9.20;99.90;;;;;;4929270;29;20106;-96
2021/12/24 06:01:44;;;;;;;40.95;25.48;;;9.20;99.90;;;;;;4930505;29;20047;-93
2021/12/24 06:04:11;;;;;;;40.08;23.67;;;9.20;99.90;;;;;;4930314;29;20062;-95
2021/12/24 06:06:37;;;;;;;35.10;23.75;;;9.20;99.90;;;;;;4941934;29;20458;-93
2021/12/24 06:09:03;;;;;;;38.88;21.95;;;9.20;99.90;;;;;;4928779;29;20118;-96
2021/12/24 06:11:29;;;;;;;36.33;20.58;;;9.20;99.90;;;;;;4929301;29;20500;-95
2021/12/24 06:13:56;;;;;;;39.22;20.52;;;9.20;99.90;;;;;;4940872;29;20047;-94
2021/12/24 06:16:25;;;;;;;32.58;20.08;;;9.20;99.90;;;;;;4940636;29;20176;-96
2021/12/24 06:18:51;;;;;;;34.03;19.20;;;9.20;99.90;;;;;;4929953;29;20127;-92
2021/12/24 06:21:17;;;;;;;34.03;19.35;;;9.20;99.90;;;;;;4930352;29;20083;-94
2021/12/24 06:23:44;;;;;;;30.95;18.67;;;9.20;99.90;;;;;;4950781;29;20027;-92
2021/12/24 06:26:10;;;;;;;28.38;17.73;;;9.20;99.90;;;;;;4962591;28;20334;-93
2021/12/24 06:28:37;;;;;;;28.55;16.73;;;9.20;99.90;;;;;;4960616;28;20035;-93
2021/12/24 06:31:03;;;;;;;34.72;18.25;;;9.20;99.90;;;;;;4947171;29;20047;-95
2021/12/24 06:33:29;;;;;;;32.33;17.80;;;9.20;99.90;;;;;;4940152;29;20138;-92
2021/12/24 06:35:56;;;;;;;35.28;18.75;;;9.20;99.90;;;;;;4922540;29;20466;-94
2021/12/24 06:38:22;;;;;;;34.13;18.75;;;9.10;99.90;;;;;;4934557;29;20051;-93
2021/12/24 06:40:48;;;;;;;30.67;17.45;;;9.20;99.90;;;;;;4922736;29;20580;-92
2021/12/24 06:43:13;;;;;;;32.92;18.15;;;9.20;99.90;;;;;;4934522;29;20048;-93
2021/12/24 06:45:39;;;;;;;29.05;16.98;;;9.20;99.90;;;;;;4933626;29;20046;-94
2021/12/24 06:48:06;;;;;;;30.23;16.65;;;9.10;99.90;;;;;;4933210;29;20047;-94
2021/12/24 06:50:33;;;;;;;33.75;16.73;;;9.20;99.90;;;;;;4936880;29;20151;-95
2021/12/24 06:52:58;;;;;;;31.95;17.45;;;9.20;99.90;;;;;;4921958;29;20039;-93
2021/12/24 06:55:25;;;;;;;29.17;17.63;;;9.10;99.90;;;;;;4937558;29;20086;-94
2021/12/24 06:57:50;;;;;;;31.88;16.27;;;9.10;99.90;;;;;;4922648;29;20109;-94
2021/12/24 07:00:22;;;;;;;32.17;15.90;;;9.10;99.90;;;;;;4921631;29;20495;-92
2021/12/24 07:02:48;;;;;;;29.85;15.80;;;9.10;99.90;;;;;;4938541;29;20404;-93
2021/12/24 07:05:15;;;;;;;26.88;14.98;;;9.10;99.90;;;;;;4937937;29;20062;-92
2021/12/24 07:07:41;;;;;;;32.72;16.05;;;9.10;99.90;;;;;;4938351;29;20420;-95
2021/12/24 07:10:08;;;;;;;24.23;12.95;;;9.10;99.90;;;;;;4938135;29;20040;-93
2021/12/24 07:12:37;;;;;;;26.67;13.82;;;9.10;99.90;;;;;;4927412;29;20047;-93
2021/12/24 07:15:03;;;;;;;24.92;13.52;;;9.00;99.90;;;;;;4931470;29;20098;-94
2021/12/24 07:17:29;;;;;;;23.50;13.25;;;9.10;99.90;;;;;;4937963;29;20081;-95
2021/12/24 07:19:54;;;;;;;25.00;13.43;;;9.10;99.90;;;;;;4944196;29;20047;-96
2021/12/24 07:22:23;;;;;;;27.13;12.35;;;9.10;99.90;;;;;;4941887;29;20054;-93
2021/12/24 07:24:48;;;;;;;25.52;13.82;;;9.10;99.90;;;;;;4932226;29;20400;-95
2021/12/24 07:27:14;;;;;;;28.20;13.18;;;9.10;99.90;;;;;;4933965;29;20047;-96
2021/12/24 07:29:40;;;;;;;24.77;12.25;;;9.00;99.90;;;;;;4943903;29;20074;-93
2021/12/24 07:32:06;;;;;;;25.17;11.65;;;9.00;99.90;;;;;;4926395;29;20401;-91
2021/12/24 07:34:32;;;;;;;22.90;11.60;;;9.00;99.90;;;;;;4943091;29;20054;-93
2021/12/24 07:36:58;;;;;;;22.50;11.80;;;9.00;99.90;;;;;;4920261;28;20081;-89
2021/12/24 07:39:24;;;;;;;21.40;10.75;;;9.00;99.90;;;;;;4938658;29;20150;-90
2021/12/24 07:41:50;;;;;;;19.58;10.60;;;9.00;99.90;;;;;;4936751;29;20039;-87
2021/12/24 07:44:18;;;;;;;24.83;11.57;;;9.00;99.90;;;;;;4945406;29;20043;-87
2021/12/24 07:46:49;;;;;;;23.50;11.18;;;9.00;99.90;;;;;;4934052;29;20045;-92
2021/12/24 07:52:08;;;;;;;20.90;10.23;;;9.00;99.90;;;;;;4931585;29;20079;-88
2021/12/24 07:54:40;;;;;;;22.23;10.68;;;9.00;99.90;;;;;;4932849;29;20114;-88
2021/12/24 07:57:07;;;;;;;20.33;9.55;;;9.00;99.90;;;;;;4931963;29;20047;-88
2021/12/24 07:59:37;;;;;;;23.33;10.35;;;9.00;99.90;;;;;;4915484;29;20102;-88
2021/12/24 08:02:03;;;;;;;16.95;8.95;;;9.00;99.90;;;;;;4917358;29;20075;-86
2021/12/24 08:04:30;;;;;;;20.50;8.98;;;9.00;99.90;;;;;;4917992;29;20051;-87
2021/12/24 08:06:55;;;;;;;22.85;9.05;;;9.00;99.90;;;;;;4935136;29;20090;-88
2021/12/24 08:09:21;;;;;;;19.73;8.75;;;9.00;99.90;;;;;;4918727;29;20079;-87
2021/12/24 08:11:46;;;;;;;18.92;8.90;;;9.00;99.90;;;;;;4935434;29;20109;-86
2021/12/24 08:14:12;;;;;;;18.13;7.95;;;9.00;99.90;;;;;;4918902;29;20049;-86
2021/12/24 08:16:38;;;;;;;23.20;8.90;;;9.00;99.90;;;;;;4917432;29;20086;-88
2021/12/24 08:19:03;;;;;;;20.33;7.90;;;9.00;99.90;;;;;;4934637;29;20392;-86
2021/12/24 08:21:29;;;;;;;17.33;7.82;;;9.00;99.90;;;;;;4931187;29;20119;-87
2021/12/24 08:23:55;;;;;;;19.80;7.00;;;9.00;99.90;;;;;;4932402;29;20089;-85
2021/12/24 08:26:21;;;;;;;17.23;7.45;;;9.00;99.90;;;;;;4904834;29;20042;-87
2021/12/24 08:28:48;;;;;;;20.40;7.85;;;9.10;99.90;;;;;;4930284;29;20111;-89
2021/12/24 08:31:14;;;;;;;21.63;7.97;;;9.10;99.90;;;;;;4926532;29;20078;-87
2021/12/24 08:33:40;;;;;;;22.45;7.72;;;9.10;99.90;;;;;;4918160;29;20095;-86
2021/12/24 08:36:07;;;;;;;19.33;7.68;;;9.10;99.90;;;;;;4918388;29;20039;-87
2021/12/24 08:38:33;;;;;;;19.80;8.07;;;9.10;99.90;;;;;;4913679;29;20043;-88
2021/12/24 08:40:59;;;;;;;25.20;9.57;;;9.10;99.90;;;;;;4916379;28;20546;-88
2021/12/24 08:43:25;;;;;;;20.58;8.88;;;9.00;99.90;;;;;;4913981;29;20130;-86
2021/12/24 08:45:50;;;;;;;27.25;9.00;;;9.10;99.90;;;;;;4934110;29;20060;-89
2021/12/24 08:48:19;;;;;;;21.23;8.93;;;9.10;99.90;;;;;;4919043;29;20047;-89
2021/12/24 08:50:45;;;;;;;20.95;8.68;;;9.10;99.90;;;;;;4932799;29;20145;-88
2021/12/24 08:53:12;;;;;;;20.33;7.93;;;9.10;99.90;;;;;;4934673;29;20480;-86
2021/12/24 08:55:39;;;;;;;21.45;8.38;;;9.10;99.90;;;;;;4930602;29;20378;-87
2021/12/24 08:58:05;;;;;;;21.45;7.75;;;9.10;99.90;;;;;;4926876;29;20532;-94
2021/12/24 09:00:32;;;;;;;21.17;8.23;;;9.10;99.90;;;;;;4916656;29;20496;-90
2021/12/24 09:02:57;;;;;;;23.08;7.93;;;9.20;99.90;;;;;;4919094;29;20050;-91
2021/12/24 09:05:24;;;;;;;19.65;7.68;;;9.20;99.90;;;;;;4917745;29;20067;-92
2021/12/24 09:07:50;;;;;;;24.48;8.02;;;9.20;99.90;;;;;;4915982;29;20409;-91
2021/12/24 09:10:16;;;;;;;21.83;7.75;;;9.20;99.90;;;;;;4931076;29;20045;-91
2021/12/24 09:12:43;;;;;;;21.85;8.32;;;9.20;99.90;;;;;;4909737;29;20571;-92
2021/12/24 09:15:10;;;;;;;18.40;7.30;;;9.20;99.90;;;;;;4915373;29;20063;-89
2021/12/24 09:17:36;;;;;;;19.90;7.80;;;9.20;99.90;;;;;;4933684;29;20046;-91
2021/12/24 09:20:03;;;;;;;18.25;7.60;;;9.10;99.90;;;;;;4918718;29;20411;-90
2021/12/24 09:22:32;;;;;;;18.23;6.65;;;9.10;99.90;;;;;;4932992;29;20043;-88
2021/12/24 09:24:58;;;;;;;19.73;7.50;;;9.10;99.90;;;;;;4933890;29;20102;-91
2021/12/24 09:27:25;;;;;;;26.52;8.15;;;9.10;99.90;;;;;;4932993;29;20047;-90
2021/12/24 09:29:51;;;;;;;21.50;8.02;;;9.10;99.90;;;;;;4918410;29;20039;-90
2021/12/24 09:32:16;;;;;;;18.70;7.68;;;9.10;99.90;;;;;;4916883;29;20040;-92
2021/12/24 09:34:42;;;;;;;18.33;7.43;;;9.10;99.90;;;;;;4933378;29;20047;-88
2021/12/24 09:37:08;;;;;;;24.25;9.57;;;9.10;99.90;;;;;;4934598;29;20531;-92
2021/12/24 09:39:34;;;;;;;21.92;7.68;;;9.10;99.90;;;;;;4915578;29;20050;-90
2021/12/24 09:42:00;;;;;;;18.77;8.45;;;9.20;99.90;;;;;;4918722;29;20050;-92
2021/12/24 09:44:26;;;;;;;20.52;8.32;;;9.10;99.90;;;;;;4930236;29;20036;-94
2021/12/24 09:46:52;;;;;;;24.77;9.05;;;9.20;99.90;;;;;;4934616;29;20047;-96
2021/12/24 09:49:18;;;;;;;25.27;9.75;;;9.20;99.90;;;;;;4935127;29;20047;-95
2021/12/24 09:51:46;;;;;;;25.25;10.00;;;9.20;99.90;;;;;;4921446;29;20043;-95
2021/12/24 09:54:14;;;;;;;21.98;10.18;;;9.20;99.90;;;;;;4939340;29;20035;-94
2021/12/24 09:56:40;;;;;;;20.98;8.85;;;9.20;99.90;;;;;;4934961;29;20043;-93
2021/12/24 09:59:07;;;;;;;22.95;9.30;;;9.20;99.90;;;;;;4931321;28;20094;-92
2021/12/24 10:01:39;;;;;;;22.77;8.25;;;9.20;99.90;;;;;;4934621;29;20050;-94
2021/12/24 10:04:08;;;;;;;22.17;8.57;;;9.20;99.90;;;;;;4923816;28;20112;-87
2021/12/24 10:06:35;;;;;;;23.67;8.63;;;9.20;99.90;;;;;;4932775;29;20095;-92
2021/12/24 10:09:08;;;;;;;19.70;7.80;;;9.30;99.90;;;;;;4949669;28;20053;-87
2021/12/24 10:11:49;;;;;;;19.83;8.45;;;9.30;99.90;;;;;;4949023;28;20046;-88
2021/12/24 10:14:16;;;;;;;23.08;9.27;;;9.30;99.90;;;;;;4933219;29;20407;-93
2021/12/24 10:16:45;;;;;;;24.02;9.82;;;9.30;99.90;;;;;;4916053;29;20095;-90
2021/12/24 10:19:11;;;;;;;19.85;9.25;;;9.30;99.90;;;;;;4917307;29;20138;-87
2021/12/24 10:21:37;;;;;;;25.10;9.73;;;9.30;99.90;;;;;;4929622;29;20135;-91
2021/12/24 10:24:17;;;;;;;21.05;8.40;;;9.30;99.90;;;;;;4923147;29;20046;-89
2021/12/24 10:26:46;;;;;;;22.67;8.88;;;9.40;99.90;;;;;;4951484;28;20178;-88
2021/12/24 10:29:29;;;;;;;25.10;8.95;;;9.30;99.90;;;;;;4934324;29;20055;-90
2021/12/24 10:31:58;;;;;;;24.65;9.63;;;9.30;99.90;;;;;;4937153;29;20187;-88
2021/12/24 10:34:33;;;;;;;28.20;8.98;;;9.30;99.90;;;;;;4934455;28;20491;-89
2021/12/24 10:37:11;;;;;;;26.92;9.55;;;9.30;99.90;;;;;;4936209;29;20050;-89
2021/12/24 10:39:43;;;;;;;23.20;9.15;;;9.30;99.90;;;;;;4931407;29;20443;-88
2021/12/24 10:42:15;;;;;;;28.27;10.05;;;9.30;99.90;;;;;;4933100;29;20078;-87
2021/12/24 10:44:43;;;;;;;28.65;11.85;;;9.20;99.90;;;;;;4925933;29;20486;-89
2021/12/24 10:47:13;;;;;;;27.92;11.18;;;9.20;99.90;;;;;;4937173;29;20433;-87
2021/12/24 10:49:54;;;;;;;25.35;10.35;;;9.20;99.90;;;;;;4935296;29;20081;-88
2021/12/24 10:55:05;;;;;;;24.98;11.13;;;9.10;99.90;;;;;;4947329;29;19922;-89
2021/12/24 10:57:34;;;;;;;23.05;11.10;;;9.10;99.90;;;;;;4943067;29;20086;-88
2021/12/24 11:00:12;;;;;;;25.85;10.35;;;9.20;99.90;;;;;;4925632;29;20128;-87
2021/12/24 11:02:38;;;;;;;24.63;10.23;;;9.20;99.90;;;;;;4916015;29;20051;-88
2021/12/24 11:05:04;;;;;;;25.30;9.93;;;9.10;99.90;;;;;;4924239;29;20040;-88
2021/12/24 11:07:42;;;;;;;23.63;10.45;;;9.20;99.90;;;;;;4915701;29;20048;-89
2021/12/24 11:10:19;;;;;;;21.00;9.07;;;9.20;99.90;;;;;;4898736;29;20123;-90
2021/12/24 11:12:47;;;;;;;18.30;8.73;;;9.10;99.90;;;;;;4915877;29;20051;-89
2021/12/24 11:15:21;;;;;;;20.65;7.70;;;9.10;99.90;;;;;;4916813;29;20048;-88
2021/12/24 11:17:48;;;;;;;18.23;7.90;;;9.10;99.90;;;;;;4901039;29;20062;-88
2021/12/24 11:20:13;;;;;;;18.33;8.25;;;9.00;99.90;;;;;;4901046;29;20055;-88
2021/12/24 11:23:03;;;;;;;16.80;6.57;;;9.10;99.90;;;;;;4914698;29;20512;-88
2021/12/24 11:25:33;;;;;;;16.13;6.35;;;9.00;99.90;;;;;;4913766;29;20047;-88
2021/12/24 11:28:02;;;;;;;16.58;6.55;;;9.00;99.90;;;;;;4913468;29;20066;-91
2021/12/24 11:30:29;;;;;;;14.35;5.63;;;9.00;99.90;;;;;;4913532;29;20051;-89
2021/12/24 11:32:55;;;;;;;12.88;5.60;;;9.00;99.90;;;;;;4913207;29;20051;-88
2021/12/24 11:35:22;;;;;;;7.18;3.08;;;9.00;99.90;;;;;;4897718;29;20048;-88
2021/12/24 11:37:49;;;;;;;4.68;2.25;;;8.80;99.90;;;;;;4903856;29;20110;-89
2021/12/24 11:40:19;;;;;;;7.65;6.22;;;8.60;99.90;;;;;;4915183;29;20048;-87
2021/12/24 11:42:52;;;;;;;6.00;3.50;;;8.30;99.90;;;;;;4912936;29;20074;-89
2021/12/24 11:45:25;;;;;;;4.68;2.30;;;8.20;99.90;;;;;;4918009;29;20046;-88
2021/12/24 11:47:51;;;;;;;5.20;2.80;;;8.00;99.90;;;;;;4899105;29;20063;-88
2021/12/24 11:50:18;;;;;;;4.78;2.70;;;7.90;99.90;;;;;;4900528;29;20055;-88
2021/12/24 11:52:47;;;;;;;5.78;3.20;;;7.80;99.90;;;;;;4932010;29;20059;-87
2021/12/24 11:55:13;;;;;;;7.22;4.70;;;7.70;99.90;;;;;;4931952;29;20099;-88
2021/12/24 11:57:57;;;;;;;6.97;4.07;;;7.70;99.90;;;;;;4915618;29;20138;-88
2021/12/24 12:00:36;;;;;;;5.72;3.42;;;7.70;99.90;;;;;;4912153;29;20036;-88
2021/12/24 12:03:01;;;;;;;4.82;2.45;;;7.70;99.90;;;;;;4889092;29;20051;-88
2021/12/24 12:05:36;;;;;;;3.50;2.17;;;7.60;99.90;;;;;;4912973;29;20507;-87
2021/12/24 12:08:30;;;;;;;3.58;1.63;;;7.60;99.90;;;;;;4934914;29;20055;-88
2021/12/24 12:11:29;;;;;;;2.78;1.77;;;7.50;99.90;;;;;;4933889;29;20113;-86
2021/12/24 12:14:01;;;;;;;3.67;1.70;;;7.50;99.90;;;;;;4899217;29;20062;-87
2021/12/24 12:16:38;;;;;;;25.13;23.17;;;7.40;99.90;;;;;;4917817;29;20039;-88
2021/12/24 12:19:23;;;;;;;4.70;2.75;;;7.40;99.90;;;;;;4916242;29;20082;-88
2021/12/24 12:22:20;;;;;;;6.85;5.00;;;7.40;99.90;;;;;;4929102;29;20073;-89
2021/12/24 12:24:57;;;;;;;3.72;2.10;;;7.40;99.90;;;;;;4917806;29;20043;-90
2021/12/24 12:27:42;;;;;;;4.43;2.40;;;7.40;99.90;;;;;;4933712;29;20526;-87
2021/12/24 12:30:20;;;;;;;3.78;2.00;;;7.40;99.90;;;;;;4931204;29;20074;-88
2021/12/24 12:32:47;;;;;;;2.92;1.60;;;7.40;99.90;;;;;;4933219;29;20138;-88
2021/12/24 12:35:14;;;;;;;2.42;1.30;;;7.40;99.90;;;;;;4929778;29;20040;-87
2021/12/24 12:37:50;;;;;;;3.78;1.80;;;7.40;99.90;;;;;;4916873;29;20198;-88
2021/12/24 12:40:15;;;;;;;3.58;1.60;;;7.50;99.90;;;;;;4930555;29;20043;-89
2021/12/24 12:45:41;;;;;;;3.92;1.92;;;7.50;99.90;;;;;;4938049;28;20501;-92
2021/12/24 12:48:09;;;;;;;4.95;2.10;;;7.40;99.90;;;;;;4936195;29;20066;-90
2021/12/24 12:50:39;;;;;;;5.15;2.35;;;7.40;99.90;;;;;;4933323;29;20031;-91
2021/12/24 12:53:25;;;;;;;5.05;2.72;;;7.50;99.90;;;;;;4924313;29;20035;-91
2021/12/24 12:56:09;;;;;;;6.10;2.85;;;7.50;99.90;;;;;;4931170;29;20142;-92
2021/12/24 12:58:36;;;;;;;6.05;2.80;;;7.40;99.90;;;;;;4910640;29;20047;-91
2021/12/24 13:01:13;;;;;;;24.73;22.63;;;7.50;99.90;;;;;;4922163;29;20039;-91
2021/12/24 13:03:57;;;;;;;5.13;2.97;;;7.50;99.90;;;;;;4918010;29;20134;-92
2021/12/24 13:06:36;;;;;;;5.40;2.92;;;7.40;99.90;;;;;;4940395;29;20058;-91
2021/12/24 13:09:07;;;;;;;7.45;3.80;;;7.40;99.90;;;;;;4928377;29;20067;-90
2021/12/24 13:11:41;;;;;;;5.57;3.83;;;7.30;99.90;;;;;;4915932;29;20401;-92
2021/12/24 13:14:09;;;;;;;6.78;4.97;;;7.30;99.90;;;;;;4933961;29;20459;-91
2021/12/24 13:16:42;;;;;;;5.05;2.63;;;7.20;99.90;;;;;;4936593;28;20567;-91
2021/12/24 13:25:14;;;;;;;5.30;2.92;;;7.20;99.90;;;;;;4931607;29;20054;-93
2021/12/24 13:27:51;;;;;;;5.57;3.08;;;7.10;99.90;;;;;;4918137;29;20393;-91
2021/12/24 13:30:22;;;;;;;7.32;4.85;;;7.20;99.90;;;;;;4931635;29;20054;-91
2021/12/24 13:32:52;;;;;;;7.20;4.75;;;7.10;99.90;;;;;;4918883;29;20047;-92
2021/12/24 13:35:39;;;;;;;7.47;4.68;;;7.10;99.90;;;;;;4919872;28;20054;-91
2021/12/24 13:38:18;;;;;;;5.20;3.33;;;7.10;99.90;;;;;;4933874;29;20058;-92
2021/12/24 13:40:45;;;;;;;5.40;3.20;;;7.10;99.90;;;;;;4932616;29;20055;-91
2021/12/24 13:43:13;;;;;;;6.70;3.97;;;7.10;99.90;;;;;;4937881;29;20051;-92
2021/12/24 13:45:43;;;;;;;6.93;3.95;;;7.10;99.90;;;;;;4930441;29;20407;-91
2021/12/24 13:48:13;;;;;;;7.03;4.30;;;7.10;99.90;;;;;;4933838;29;20043;-92
2021/12/24 13:56:23;;;;;;;6.75;4.20;;;7.10;99.90;;;;;;4927837;29;20051;-90
2021/12/24 13:58:58;;;;;;;7.60;4.65;;;7.10;99.90;;;;;;4907135;29;20051;-91
2021/12/24 14:01:27;;;;;;;7.15;4.03;;;7.10;99.90;;;;;;4938123;29;20397;-91
2021/12/24 14:03:53;;;;;;;5.78;3.35;;;7.00;99.90;;;;;;4930328;28;20043;-90
2021/12/24 14:06:19;;;;;;;6.63;3.65;;;7.00;99.90;;;;;;4920656;29;20050;-91
2021/12/24 14:08:45;;;;;;;7.03;4.00;;;7.00;99.90;;;;;;4934988;29;20039;-91
2021/12/24 14:11:20;;;;;;;6.68;3.42;;;7.00;99.90;;;;;;4936478;29;20094;-92
2021/12/24 14:13:55;;;;;;;6.85;3.67;;;7.10;99.90;;;;;;4921595;29;20045;-90
2021/12/24 14:19:05;;;;;;;8.15;5.18;;;7.10;99.90;;;;;;4936677;29;20066;-91
2021/12/24 14:21:49;;;;;;;10.77;9.68;;;7.10;99.90;;;;;;4934125;29;20043;-91
2021/12/24 14:24:18;;;;;;;8.60;5.30;;;7.10;99.90;;;;;;4937875;29;20050;-91
2021/12/24 14:26:51;;;;;;;9.75;5.40;;;7.10;99.90;;;;;;4952949;29;20094;-92
2021/12/24 14:29:27;;;;;;;6.47;4.03;;;7.10;99.90;;;;;;4937919;29;20043;-90
2021/12/24 14:32:14;;;;;;;7.68;4.63;;;7.20;99.90;;;;;;4916153;29;20047;-90
2021/12/24 14:34:51;;;;;;;8.10;4.00;;;7.10;99.90;;;;;;4935708;29;20483;-90
2021/12/24 14:37:23;;;;;;;7.38;3.95;;;7.10;99.90;;;;;;4933951;29;20078;-90
2021/12/24 14:39:56;;;;;;;6.88;3.78;;;7.10;99.90;;;;;;4921137;29;20059;-91
2021/12/24 14:42:30;;;;;;;6.80;3.60;;;7.10;99.90;;;;;;4935078;29;20043;-90
2021/12/24 14:45:14;;;;;;;6.68;3.35;;;7.10;99.90;;;;;;4922898;28;20445;-90
2021/12/24 14:47:40;;;;;;;7.18;4.05;;;7.00;99.90;;;;;;4951736;28;20050;-91